Time;durP1;ratioP1;P1;durP2;ratioP2;P2;SDS_P1;SDS_P2;PMS_P1;PMS_P2;Temp;Humidity;BMP_temperature;BMP_pressure;BME280_temperature;BME280_humidity;BME280_pressure;Samples;Min_cycle;Max_cycle;Signal;HPM_P1;HPM_P2
2023/06/26 00:01:38;;;;;;;;;;;20.70;45.90;;;16.94;84.86;95586.97;4936716;29;19910;-50
2023/06/26 00:04:04;;;;;;;;;;;20.70;45.90;;;16.95;84.24;95588.56;4915891;29;19960;-50
2023/06/26 00:06:30;;;;;;;;;;;20.70;46.00;;;16.87;85.88;95592.78;4926974;29;20412;-47
2023/06/26 00:08:58;;;;;;;;;;;20.70;46.10;;;16.86;86.16;95591.22;4927960;29;19922;-48
2023/06/26 00:11:26;;;;;;;;;;;20.60;46.20;;;16.85;85.64;95586.91;4933801;29;20400;-49
2023/06/26 00:13:51;;;;;;;;;;;20.60;46.30;;;16.82;85.54;95594.78;4932885;29;20369;-46
2023/06/26 00:16:17;;;;;;;;;;;20.60;46.40;;;16.82;86.23;95584.81;4921379;29;19987;-48
2023/06/26 00:18:43;;;;;;;;;;;20.60;46.50;;;16.86;86.55;95588.50;4936394;28;19918;-48
2023/06/26 00:21:09;;;;;;;;;;;20.60;46.60;;;16.80;86.45;95595.13;4933283;29;20377;-46
2023/06/26 00:23:36;;;;;;;;;;;20.50;46.70;;;16.76;86.53;95594.09;4936215;28;19977;-50
2023/06/26 00:26:04;;;;;;;;;;;20.50;46.70;;;16.68;86.73;95592.13;4935468;29;19910;-50
2023/06/26 00:28:29;;;;;;;;;;;20.50;46.80;;;16.68;87.73;95600.19;4945097;28;20025;-48
2023/06/26 00:30:55;;;;;;;;;;;20.50;47.00;;;16.61;88.20;95597.91;4935255;29;20617;-47
2023/06/26 00:33:22;;;;;;;;;;;20.40;47.00;;;16.61;88.75;95605.19;4928296;29;19915;-47
2023/06/26 00:35:47;;;;;;;;;;;20.40;47.10;;;16.65;88.76;95604.28;4921680;29;20385;-53
2023/06/26 00:38:13;;;;;;;;;;;20.40;47.20;;;16.61;90.00;95605.97;4935062;29;20115;-50
2023/06/26 00:40:39;;;;;;;;;;;20.40;47.30;;;16.59;90.26;95602.78;4918197;29;19938;-50
2023/06/26 00:43:04;;;;;;;;;;;20.40;47.50;;;16.60;91.21;95608.97;4941884;28;20353;-51
2023/06/26 00:45:30;;;;;;;;;;;20.30;47.60;;;16.57;91.46;95613.03;4930636;29;19965;-49
2023/06/26 00:47:56;;;;;;;;;;;20.30;47.60;;;16.57;91.82;95609.56;4935592;29;19914;-46
2023/06/26 00:50:22;;;;;;;;;;;20.30;47.70;;;16.54;92.47;95607.47;4935211;29;19926;-51
2023/06/26 00:52:48;;;;;;;;;;;20.30;47.90;;;16.51;93.17;95613.47;4926790;29;20419;-50
2023/06/26 00:55:14;;;;;;;;;;;20.20;47.90;;;16.47;93.95;95612.47;4949573;28;20013;-48
2023/06/26 00:57:40;;;;;;;;;;;20.20;48.00;;;16.42;94.21;95610.66;4925664;29;19960;-49
2023/06/26 01:00:07;;;;;;;;;;;20.20;48.10;;;16.41;93.04;95606.41;4932421;29;20399;-49
2023/06/26 01:02:33;;;;;;;;;;;20.20;48.30;;;16.38;93.00;95613.16;4933329;29;20336;-49
2023/06/26 01:05:06;;;;;;;;;;;20.10;48.30;;;16.36;93.79;95611.91;4927125;29;19910;-50
2023/06/26 01:07:36;;;;;;;;;;;20.10;48.40;;;16.32;94.06;95610.88;4930582;29;19911;-51
2023/06/26 01:10:05;;;;;;;;;;;20.10;48.60;;;16.29;94.51;95614.97;4915439;29;19915;-48
2023/06/26 01:12:33;;;;;;;;;;;20.00;48.60;;;16.19;95.64;95623.25;4934167;29;19997;-47
2023/06/26 01:15:00;;;;;;;;;;;20.00;48.70;;;16.18;95.79;95618.97;4921910;29;19945;-50
2023/06/26 01:17:31;;;;;;;;;;;20.00;48.80;;;16.17;95.65;95615.50;4934600;29;19910;-49
2023/06/26 01:20:01;;;;;;;;;;;19.90;48.90;;;16.13;95.45;95619.06;4935623;29;19910;-51
2023/06/26 01:23:03;;;;;;;;;;;19.90;49.00;;;16.04;96.22;95613.56;4940512;28;19910;-48
2023/06/26 01:25:52;;;;;;;;;;;19.90;49.10;;;16.06;96.16;95613.28;4949363;28;20280;-51
2023/06/26 01:28:20;;;;;;;;;;;19.90;49.30;;;16.02;97.18;95620.38;4934236;28;19911;-52
2023/06/26 01:30:49;;;;;;;;;;;19.80;49.40;;;16.02;96.42;95618.47;4949574;28;20569;-53
2023/06/26 01:33:15;;;;;;;;;;;19.70;49.40;;;15.93;97.53;95620.25;4945441;28;19911;-56
2023/06/26 01:35:42;;;;;;;;;;;19.70;49.60;;;15.91;97.80;95622.44;4928260;29;20448;-53
2023/06/26 01:38:13;;;;;;;;;;;19.70;49.60;;;15.87;98.34;95624.91;4949489;28;19910;-53
2023/06/26 01:40:39;;;;;;;;;;;19.70;49.80;;;15.83;99.25;95623.13;4927123;29;20008;-52
2023/06/26 01:43:11;;;;;;;;;;;19.60;49.90;;;15.80;99.00;95621.84;4934848;29;20009;-53
2023/06/26 01:45:39;;;;;;;;;;;19.60;50.00;;;15.70;100.00;95620.13;4924849;29;19919;-53
2023/06/26 01:48:09;;;;;;;;;;;19.60;50.20;;;15.65;100.00;95622.88;4932772;29;19914;-53
2023/06/26 01:50:39;;;;;;;;;;;19.50;50.20;;;15.60;100.00;95624.84;4947594;28;19922;-54
2023/06/26 01:53:14;;;;;;;;;;;19.50;50.30;;;15.56;100.00;95621.94;4933084;29;20024;-53
2023/06/26 01:55:59;;;;;;;;;;;19.40;50.40;;;15.50;100.00;95625.81;4948089;28;19914;-54
2023/06/26 01:58:27;;;;;;;;;;;19.40;50.50;;;15.44;100.00;95625.09;4928464;29;19910;-53
2023/06/26 02:00:54;;;;;;;;;;;19.30;50.60;;;15.40;100.00;95631.34;4948294;28;19917;-52
2023/06/26 02:03:20;;;;;;;;;;;19.30;50.70;;;15.38;100.00;95623.56;4927663;29;19910;-51
2023/06/26 02:05:46;;;;;;;;;;;19.30;50.80;;;15.38;100.00;95626.25;4919185;29;19910;-53
2023/06/26 02:08:15;;;;;;;;;;;19.20;50.80;;;15.34;100.00;95627.16;4924271;29;20424;-52
2023/06/26 02:10:41;;;;;;;;;;;19.20;50.90;;;15.28;100.00;95631.81;4918140;29;19914;-52
2023/06/26 02:13:07;;;;;;;;;;;19.20;51.10;;;15.28;100.00;95621.84;4934393;29;20384;-53
2023/06/26 02:15:33;;;;;;;;;;;19.10;51.10;;;15.25;100.00;95622.44;4919857;29;19937;-49
2023/06/26 02:17:58;;;;;;;;;;;19.10;51.20;;;15.21;100.00;95623.34;4934882;29;19910;-48
2023/06/26 02:20:24;;;;;;;;;;;19.10;51.30;;;15.20;100.00;95619.88;4934398;29;20378;-46
2023/06/26 02:22:50;;;;;;;;;;;19.10;51.40;;;15.18;100.00;95623.91;4932951;29;19914;-46
2023/06/26 02:25:17;;;;;;;;;;;19.00;51.50;;;15.14;100.00;95622.91;4933518;29;19915;-46
2023/06/26 02:27:42;;;;;;;;;;;19.00;51.50;;;15.16;100.00;95618.84;4924350;29;20319;-47
2023/06/26 02:30:09;;;;;;;;;;;19.00;51.60;;;15.15;100.00;95629.88;4931851;29;19914;-48
2023/06/26 02:32:35;;;;;;;;;;;19.00;51.70;;;15.13;100.00;95622.09;4933238;29;19911;-52
2023/06/26 02:35:01;;;;;;;;;;;19.00;51.80;;;15.09;100.00;95626.47;4925435;29;19914;-54
2023/06/26 02:37:27;;;;;;;;;;;19.00;51.90;;;15.08;100.00;95624.88;4933808;29;19910;-51
2023/06/26 02:39:53;;;;;;;;;;;18.90;51.80;;;15.07;100.00;95627.84;4926312;29;20456;-53
2023/06/26 02:42:18;;;;;;;;;;;18.90;52.00;;;15.03;100.00;95627.63;4933647;29;20001;-52
2023/06/26 02:44:44;;;;;;;;;;;18.90;52.00;;;14.99;100.00;95622.06;4931670;29;19917;-53
2023/06/26 02:47:10;;;;;;;;;;;18.90;52.10;;;14.96;100.00;95630.69;4924441;29;19918;-54
2023/06/26 02:49:36;;;;;;;;;;;18.80;52.10;;;14.96;100.00;95624.53;4933758;29;19914;-53
2023/06/26 02:52:01;;;;;;;;;;;18.80;52.20;;;14.96;100.00;95625.31;4931437;29;19944;-53
2023/06/26 02:54:27;;;;;;;;;;;18.80;52.30;;;14.98;100.00;95631.19;4933529;29;19918;-53
2023/06/26 02:56:53;;;;;;;;;;;18.80;52.40;;;14.96;100.00;95625.31;4944341;28;19997;-52
2023/06/26 02:59:19;;;;;;;;;;;18.80;52.40;;;14.94;100.00;95630.16;4930995;29;20270;-52
2023/06/26 03:01:44;;;;;;;;;;;18.80;52.50;;;14.87;100.00;95631.63;4935318;29;19953;-53
2023/06/26 03:04:10;;;;;;;;;;;18.80;52.60;;;14.87;100.00;95635.09;4924109;29;19915;-53
2023/06/26 03:06:36;;;;;;;;;;;18.80;52.60;;;14.87;100.00;95632.41;4927197;29;20329;-53
2023/06/26 03:09:02;;;;;;;;;;;18.80;52.70;;;14.88;100.00;95644.72;4923630;29;20009;-54
2023/06/26 03:11:28;;;;;;;;;;;18.70;52.80;;;14.86;100.00;95644.25;4937565;28;19997;-53
2023/06/26 03:13:54;;;;;;;;;;;18.70;52.80;;;14.88;100.00;95649.31;4933538;29;19978;-52
2023/06/26 03:16:20;;;;;;;;;;;18.70;52.90;;;14.88;100.00;95644.72;4927116;28;19911;-48
2023/06/26 03:18:45;;;;;;;;;;;18.70;53.00;;;14.90;100.00;95641.78;4937263;29;19914;-53
2023/06/26 03:21:11;;;;;;;;;;;18.70;53.00;;;14.91;100.00;95649.50;4930452;29;20388;-53
2023/06/26 03:23:37;;;;;;;;;;;18.80;53.20;;;14.95;100.00;95641.72;4934254;29;19910;-54
2023/06/26 03:26:03;;;;;;;;;;;18.70;53.10;;;14.95;100.00;95645.19;4936161;29;19914;-53
2023/06/26 03:28:30;;;;;;;;;;;18.70;53.20;;;14.99;100.00;95640.03;4924571;29;20385;-55
2023/06/26 03:30:56;;;;;;;;;;;18.70;53.20;;;14.99;100.00;95645.41;4926584;29;19989;-53
2023/06/26 03:33:22;;;;;;;;;;;18.80;53.30;;;15.02;100.00;95644.81;4930731;29;19953;-52
2023/06/26 03:35:48;;;;;;;;;;;18.80;53.30;;;15.01;100.00;95641.34;4930625;29;19911;-53
2023/06/26 03:38:14;;;;;;;;;;;18.80;53.40;;;15.03;100.00;95652.56;4936970;29;19914;-53
2023/06/26 03:40:39;;;;;;;;;;;18.80;54.00;;;15.05;100.00;95652.28;4929068;29;19922;-52
2023/06/26 03:43:05;;;;;;;;;;;18.80;53.40;;;15.07;100.00;95654.66;4937140;29;19926;-54
2023/06/26 03:45:31;;;;;;;;;;;18.80;53.40;;;15.07;100.00;95644.72;4927261;28;19929;-55
2023/06/26 03:47:56;;;;;;;;;;;18.90;53.60;;;15.09;100.00;95655.97;4934370;29;19917;-53
2023/06/26 03:50:22;;;;;;;;;;;18.90;53.60;;;15.10;100.00;95654.88;4936490;29;19964;-51
2023/06/26 03:52:49;;;;;;;;;;;18.90;53.60;;;15.15;100.00;95654.81;4933348;29;19933;-50
2023/06/26 03:55:15;;;;;;;;;;;19.00;53.70;;;15.14;100.00;95650.53;4936127;29;19914;-50
2023/06/26 03:57:41;;;;;;;;;;;18.90;53.60;;;15.13;100.00;95648.13;4929670;29;19910;-53
2023/06/26 04:00:08;;;;;;;;;;;19.00;53.70;;;15.13;100.00;95656.19;4936457;29;19946;-51
2023/06/26 04:02:35;;;;;;;;;;;19.00;53.70;;;15.11;100.00;95659.16;4927523;29;19915;-52
2023/06/26 04:05:03;;;;;;;;;;;19.00;53.70;;;15.11;100.00;95661.84;4918011;29;20037;-50
2023/06/26 04:07:29;;;;;;;;;;;19.00;53.70;;;15.07;100.00;95668.88;4929850;29;19911;-46
2023/06/26 04:09:54;;;;;;;;;;;19.00;54.40;;;15.16;100.00;95677.06;4916710;29;19915;-48
2023/06/26 04:12:20;;;;;;;;;;;19.00;53.90;;;15.27;100.00;95668.56;4933085;29;19914;-51
2023/06/26 04:14:46;;;;;;;;;;;19.10;54.00;;;15.34;100.00;95665.53;4922874;29;20006;-52
2023/06/26 04:17:11;;;;;;;;;;;19.20;54.00;;;15.44;100.00;95664.56;4932503;29;19910;-47
2023/06/26 04:19:37;;;;;;;;;;;19.20;54.00;;;15.70;100.00;95673.03;4936415;29;20367;-49
2023/06/26 04:22:03;;;;;;;;;;;19.30;54.10;;;15.93;100.00;95672.09;4926545;29;19965;-48
2023/06/26 04:24:29;;;;;;;;;;;19.50;54.20;;;16.14;100.00;95671.72;4936073;29;20001;-52
2023/06/26 04:26:56;;;;;;;;;;;19.60;54.20;;;16.33;100.00;95677.00;4931589;29;20005;-49
2023/06/26 04:29:25;;;;;;;;;;;19.70;54.20;;;16.55;99.40;95670.94;4927819;29;19914;-48
2023/06/26 04:31:51;;;;;;;;;;;19.90;54.20;;;16.75;98.28;95672.38;4935542;29;20369;-51
2023/06/26 04:34:17;;;;;;;;;;;20.00;54.00;;;16.97;96.34;95679.75;4928397;29;19910;-53
2023/06/26 04:36:47;;;;;;;;;;;20.30;54.00;;;17.18;95.23;95672.03;4933506;29;19917;-51
2023/06/26 04:39:17;;;;;;;;;;;20.40;53.90;;;17.43;92.79;95667.94;4930078;29;19934;-50
2023/06/26 04:41:44;;;;;;;;;;;20.70;53.90;;;17.67;92.58;95673.81;4934028;29;20296;-50
2023/06/26 04:44:10;;;;;;;;;;;20.90;53.70;;;17.91;91.21;95670.03;4935876;29;20001;-50
2023/06/26 04:46:41;;;;;;;;;;;21.10;53.50;;;18.10;90.21;95675.19;4940970;23;19995;-48
2023/06/26 04:49:09;;;;;;;;;;;21.30;53.40;;;18.33;89.30;95674.00;4965358;28;19921;-48
2023/06/26 04:51:42;;;;;;;;;;;21.60;53.30;;;18.55;88.20;95672.34;4966187;28;19953;-50
2023/06/26 04:54:10;;;;;;;;;;;21.80;53.10;;;18.80;88.03;95668.16;4972767;28;19909;-49
2023/06/26 04:56:36;;;;;;;;;;;22.10;52.90;;;18.99;86.94;95674.09;4973181;28;20399;-49
2023/06/26 04:59:02;;;;;;;;;;;22.30;52.80;;;19.22;85.95;95671.22;4953442;28;19910;-48
2023/06/26 05:01:29;;;;;;;;;;;22.50;52.60;;;19.45;84.79;95678.06;4970256;28;19910;-49
2023/06/26 05:04:01;;;;;;;;;;;22.80;52.40;;;19.67;82.09;95671.69;4971444;28;20008;-49
2023/06/26 05:06:26;;;;;;;;;;;23.00;52.80;;;19.91;82.94;95676.59;4968197;28;20445;-47
2023/06/26 05:08:52;;;;;;;;;;;23.30;52.00;;;20.17;81.96;95673.03;4968451;28;20004;-48
2023/06/26 05:11:18;;;;;;;;;;;23.50;51.80;;;20.47;81.21;95673.88;4969050;28;20005;-47
2023/06/26 05:13:44;;;;;;;;;;;23.80;51.70;;;20.66;75.60;95673.50;4973609;28;19936;-51
2023/06/26 05:16:10;;;;;;;;;;;24.10;51.50;;;20.92;77.78;95676.81;4964108;28;20411;-52
2023/06/26 05:18:36;;;;;;;;;;;24.40;51.30;;;21.19;74.11;95677.47;4973006;28;20269;-49
2023/06/26 05:21:03;;;;;;;;;;;24.70;51.00;;;21.49;73.92;95673.56;4967562;28;20327;-51
2023/06/26 05:23:32;;;;;;;;;;;25.00;50.70;;;21.77;72.85;95681.13;4958249;28;19910;-51
2023/06/26 05:25:59;;;;;;;;;;;25.30;50.50;;;22.07;70.13;95683.72;4970394;28;19910;-51
2023/06/26 05:28:27;;;;;;;;;;;25.60;50.20;;;22.34;67.64;95675.00;4969108;28;19952;-50
2023/06/26 05:30:54;;;;;;;;;;;25.90;49.90;;;22.60;65.51;95684.72;4972014;28;20323;-53
2023/06/26 05:33:25;;;;;;;;;;;26.30;49.70;;;22.89;64.77;95682.91;4967093;28;19913;-50
2023/06/26 05:35:53;;;;;;;;;;;26.50;49.20;;;23.11;63.81;95677.00;4961639;28;20012;-51
2023/06/26 05:38:19;;;;;;;;;;;26.80;49.00;;;23.27;63.40;95682.53;4974980;28;19917;-52
2023/06/26 05:40:46;;;;;;;;;;;27.00;48.60;;;23.50;62.53;95678.16;4965522;28;19910;-53
2023/06/26 05:43:13;;;;;;;;;;;27.20;48.30;;;23.77;61.34;95686.69;4969005;28;20012;-54
2023/06/26 05:45:40;;;;;;;;;;;27.50;48.10;;;24.04;60.30;95682.38;4969166;28;20004;-50
2023/06/26 05:48:05;;;;;;;;;;;27.70;47.80;;;24.18;59.83;95685.47;4972483;28;19918;-50
2023/06/26 05:50:32;;;;;;;;;;;28.00;47.60;;;24.31;59.78;95677.22;4961492;28;19914;-46
2023/06/26 05:52:58;;;;;;;;;;;28.20;47.20;;;24.50;58.86;95685.50;4976950;28;19910;-50
2023/06/26 05:55:25;;;;;;;;;;;28.50;47.00;;;24.70;57.89;95681.75;4969697;28;20781;-50
2023/06/26 05:57:52;;;;;;;;;;;28.70;46.60;;;24.80;58.11;95685.84;4953995;28;20431;-53
2023/06/26 06:00:18;;;;;;;;;;;29.00;46.30;;;24.88;57.45;95692.25;4964759;28;19910;-53
2023/06/26 06:02:45;;;;;;;;;;;29.30;46.10;;;25.05;57.50;95680.97;4959212;28;19941;-53
2023/06/26 06:05:11;;;;;;;;;;;29.60;45.80;;;25.15;56.69;95682.38;4959275;28;19914;-53
2023/06/26 06:07:37;;;;;;;;;;;29.80;45.50;;;25.36;55.87;95685.56;4972486;28;19910;-50
2023/06/26 06:10:04;;;;;;;;;;;30.00;45.10;;;25.49;55.37;95674.53;4962953;28;20391;-49
2023/06/26 06:12:30;;;;;;;;;;;30.30;44.90;;;25.62;54.93;95682.22;4972459;28;19910;-49
2023/06/26 06:14:56;;;;;;;;;;;30.40;44.60;;;25.81;54.48;95680.66;4968798;28;19914;-48
2023/06/26 06:17:23;;;;;;;;;;;30.70;44.40;;;26.02;53.74;95683.00;4963891;28;19910;-48
2023/06/26 06:19:49;;;;;;;;;;;30.90;44.10;;;26.22;53.52;95684.53;4972088;28;19992;-49
2023/06/26 06:22:16;;;;;;;;;;;31.10;43.90;;;26.37;53.37;95682.84;4968574;28;19944;-47
2023/06/26 06:24:42;;;;;;;;;;;31.30;43.60;;;26.53;52.02;95680.03;4963488;28;20399;-50
2023/06/26 06:27:07;;;;;;;;;;;31.50;43.30;;;26.56;51.56;95682.03;4966396;28;19949;-50
2023/06/26 06:29:33;;;;;;;;;;;31.60;43.10;;;26.48;52.34;95693.94;4969741;28;20356;-50
2023/06/26 06:31:59;;;;;;;;;;;31.60;42.90;;;26.50;51.35;95686.22;4972190;28;19948;-49
2023/06/26 06:34:25;;;;;;;;;;;31.60;42.60;;;26.73;50.62;95683.47;4962166;28;19964;-49
2023/06/26 06:36:50;;;;;;;;;;;31.70;42.30;;;26.92;50.83;95683.41;4964079;28;20710;-49
2023/06/26 06:39:16;;;;;;;;;;;31.90;42.20;;;27.13;49.75;95682.91;4960280;28;19910;-48
2023/06/26 06:41:42;;;;;;;;;;;32.10;42.00;;;27.36;49.51;95684.81;4960687;28;19920;-48
2023/06/26 06:44:08;;;;;;;;;;;32.30;41.80;;;27.56;47.27;95680.78;4970391;28;20395;-52
2023/06/26 06:46:34;;;;;;;;;;;32.60;41.50;;;27.73;45.62;95684.09;4966086;28;19917;-53
2023/06/26 06:49:01;;;;;;;;;;;32.80;41.30;;;27.81;46.34;95678.38;4972146;28;19913;-52
2023/06/26 06:51:27;;;;;;;;;;;33.00;40.90;;;28.05;45.18;95687.25;4949654;28;19914;-53
2023/06/26 06:53:53;;;;;;;;;;;33.20;40.60;;;28.24;45.16;95680.78;4964761;28;19910;-52
2023/06/26 06:56:18;;;;;;;;;;;33.40;40.30;;;28.42;44.51;95689.19;4965853;28;20368;-54
2023/06/26 06:58:46;;;;;;;;;;;33.60;40.00;;;28.62;42.98;95692.53;4960612;28;20354;-55
2023/06/26 07:01:13;;;;;;;;;;;33.80;39.60;;;28.78;42.76;95701.25;4971622;28;19909;-54
2023/06/26 07:03:40;;;;;;;;;;;34.00;39.20;;;28.65;42.13;95700.75;4963734;28;19910;-53
2023/06/26 07:06:06;;;;;;;;;;;34.00;38.60;;;28.64;41.80;95701.13;4966449;28;19910;-51
2023/06/26 07:08:32;;;;;;;;;;;34.20;38.20;;;28.76;41.30;95700.84;4971816;28;19941;-50
2023/06/26 07:10:58;;;;;;;;;;;34.30;37.80;;;28.95;41.70;95697.06;4966996;28;19910;-49
2023/06/26 07:13:24;;;;;;;;;;;34.30;37.60;;;29.29;41.61;95698.50;4971944;28;19937;-50
2023/06/26 07:15:49;;;;;;;;;;;34.50;37.50;;;29.21;41.08;95693.38;4963749;28;19910;-49
2023/06/26 07:18:15;;;;;;;;;;;34.60;37.20;;;29.40;41.66;95697.78;4970611;28;20373;-52
2023/06/26 07:20:41;;;;;;;;;;;34.80;37.10;;;29.66;42.25;95708.53;4970275;28;20388;-52
2023/06/26 07:23:08;;;;;;;;;;;34.90;37.00;;;29.91;40.39;95699.63;4960832;28;19992;-48
2023/06/26 07:25:33;;;;;;;;;;;35.10;36.90;;;30.07;40.24;95702.03;4970441;28;19913;-53
2023/06/26 07:27:59;;;;;;;;;;;35.40;36.80;;;30.25;40.56;95699.34;4968928;28;20261;-55
2023/06/26 07:30:25;;;;;;;;;;;35.50;36.40;;;30.53;40.57;95695.88;4971382;28;19920;-49
2023/06/26 07:32:51;;;;;;;;;;;35.80;36.30;;;30.35;39.68;95695.84;4969792;28;20402;-50
2023/06/26 07:35:17;;;;;;;;;;;35.90;35.90;;;30.15;39.60;95693.41;4957316;28;19918;-48
2023/06/26 07:37:43;;;;;;;;;;;36.10;35.40;;;30.29;39.00;95694.66;4971895;28;19916;-49
2023/06/26 07:40:09;;;;;;;;;;;36.20;35.10;;;30.37;38.21;95691.53;4959965;28;20552;-53
2023/06/26 07:42:35;;;;;;;;;;;36.20;34.80;;;30.22;37.54;95681.69;4971936;28;19909;-52
2023/06/26 07:45:01;;;;;;;;;;;36.30;34.50;;;30.29;37.87;95684.44;4970058;28;19918;-50
2023/06/26 07:47:27;;;;;;;;;;;36.30;34.00;;;30.61;36.60;95689.97;4973475;28;20339;-52
2023/06/26 07:49:53;;;;;;;;;;;36.40;33.90;;;30.65;36.32;95693.53;4972411;28;19914;-54
2023/06/26 07:52:19;;;;;;;;;;;36.40;33.50;;;30.69;35.35;95695.47;4960867;28;19910;-52
2023/06/26 07:54:45;;;;;;;;;;;36.50;33.30;;;30.82;35.53;95694.72;4975417;28;19920;-54
2023/06/26 07:57:12;;;;;;;;;;;36.60;32.90;;;31.18;35.06;95697.44;4969144;28;20336;-54
2023/06/26 07:59:39;;;;;;;;;;;36.80;32.90;;;30.56;34.76;95697.84;4969396;28;19910;-52
2023/06/26 08:02:06;;;;;;;;;;;36.90;31.90;;;30.91;34.88;95688.81;4974772;28;19916;-54
2023/06/26 08:04:33;;;;;;;;;;;36.90;31.80;;;30.91;35.13;95702.56;4960655;28;19910;-50
2023/06/26 08:07:01;;;;;;;;;;;37.00;31.80;;;30.95;34.69;95694.31;4974608;28;19913;-54
2023/06/26 08:09:29;;;;;;;;;;;37.10;31.40;;;30.99;34.29;95697.84;4968949;28;19977;-49
2023/06/26 08:12:00;;;;;;;;;;;37.10;31.10;;;30.81;34.92;95695.13;4974827;28;19916;-48
2023/06/26 08:14:26;;;;;;;;;;;37.10;30.50;;;30.84;35.25;95697.09;4975070;28;19910;-48
2023/06/26 08:16:52;;;;;;;;;;;37.10;30.50;;;31.17;34.96;95697.84;4964885;28;19913;-50
2023/06/26 08:19:18;;;;;;;;;;;37.20;30.60;;;31.65;32.96;95689.84;4974305;28;19991;-53
2023/06/26 08:21:46;;;;;;;;;;;37.30;30.60;;;31.80;32.82;95687.84;4964727;28;20326;-53
2023/06/26 08:24:13;;;;;;;;;;;37.50;30.50;;;31.72;32.85;95692.59;4970582;28;19910;-54
2023/06/26 08:26:39;;;;;;;;;;;37.70;30.20;;;31.96;33.12;95688.19;4973825;28;19944;-53
2023/06/26 08:29:08;;;;;;;;;;;37.80;30.00;;;31.69;32.95;95687.91;4969894;28;19921;-47
2023/06/26 08:31:38;;;;;;;;;;;37.90;29.90;;;32.11;32.71;95690.88;4974228;28;19949;-50
2023/06/26 08:34:05;;;;;;;;;;;38.00;29.80;;;32.41;32.04;95687.56;4964061;28;19910;-49
2023/06/26 08:36:31;;;;;;;;;;;38.20;29.80;;;32.52;32.25;95691.03;4964698;28;19914;-48
2023/06/26 08:38:58;;;;;;;;;;;38.40;29.70;;;32.79;31.90;95690.47;4969492;28;19952;-50
2023/06/26 08:41:24;;;;;;;;;;;38.60;29.50;;;33.08;31.20;95699.28;4965549;28;19910;-48
2023/06/26 08:43:52;;;;;;;;;;;38.70;29.40;;;33.22;31.38;95696.41;4974079;28;19913;-48
2023/06/26 08:46:19;;;;;;;;;;;38.90;29.30;;;33.33;30.48;95691.56;4971431;28;19952;-52
2023/06/26 08:49:28;;;;;;;;;;;39.00;29.10;;;33.81;30.63;95687.88;4973361;28;19968;-48
2023/06/26 08:52:10;;;;;;;;;;;39.30;29.20;;;34.06;29.60;95692.34;4957450;28;19910;-52
2023/06/26 08:54:47;;;;;;;;;;;39.60;29.00;;;34.01;30.11;95688.03;4973021;28;19910;-51
2023/06/26 08:57:19;;;;;;;;;;;39.80;28.80;;;34.30;29.83;95690.44;4967303;28;19980;-49
2023/06/26 08:59:47;;;;;;;;;;;40.10;29.20;;;34.10;29.66;95693.09;4968764;28;20380;-49
2023/06/26 09:02:14;;;;;;;;;;;40.20;28.30;;;34.12;29.46;95687.91;4972885;28;20016;-47
2023/06/26 09:04:41;;;;;;;;;;;40.30;28.00;;;34.06;29.50;95684.03;4959994;28;19917;-50
2023/06/26 09:07:07;;;;;;;;;;;40.30;27.80;;;34.39;29.25;95684.41;4959020;28;19910;-49
2023/06/26 09:09:33;;;;;;;;;;;40.30;27.70;;;34.44;29.54;95689.44;4956839;28;19920;-48
2023/06/26 09:12:01;;;;;;;;;;;40.30;27.50;;;34.33;29.42;95683.28;4960431;28;19914;-48
2023/06/26 09:14:28;;;;;;;;;;;40.40;27.40;;;34.01;29.25;95685.28;4984290;28;19917;-47
2023/06/26 09:16:54;;;;;;;;;;;40.40;27.20;;;33.91;29.14;95680.69;4953524;28;20260;-48
2023/06/26 09:19:19;;;;;;;;;;;40.40;27.20;;;33.64;30.17;95675.09;4973123;28;19910;-47
2023/06/26 09:21:48;;;;;;;;;;;40.40;27.00;;;33.42;30.03;95676.50;4963259;28;19999;-48
2023/06/26 09:24:16;;;;;;;;;;;40.30;26.70;;;33.77;30.05;95686.38;4968523;28;20301;-47
2023/06/26 09:26:42;;;;;;;;;;;40.30;26.70;;;34.17;29.75;95687.47;4970528;28;19917;-46
2023/06/26 09:29:10;;;;;;;;;;;40.30;26.70;;;34.70;29.04;95682.38;4966668;28;19914;-47
2023/06/26 09:31:38;;;;;;;;;;;40.40;26.90;;;35.08;28.00;95687.69;4973497;28;19932;-47
2023/06/26 09:34:05;;;;;;;;;;;40.60;26.90;;;35.27;27.38;95675.09;4962657;28;19910;-48
2023/06/26 09:36:33;;;;;;;;;;;40.80;26.90;;;35.05;27.79;95688.53;4964037;28;19909;-48
2023/06/26 09:39:08;;;;;;;;;;;41.00;26.60;;;35.01;27.87;95680.28;4966602;28;20092;-54
2023/06/26 09:41:35;;;;;;;;;;;41.20;26.60;;;34.73;28.55;95676.00;4964176;28;20349;-53
2023/06/26 09:44:02;;;;;;;;;;;41.30;26.20;;;35.23;28.44;95681.47;4973193;28;19917;-52
2023/06/26 09:46:30;;;;;;;;;;;41.30;26.20;;;35.66;28.15;95674.34;4967685;28;19916;-54
2023/06/26 09:49:04;;;;;;;;;;;41.40;26.30;;;35.35;28.04;95677.31;4950526;28;20025;-50
2023/06/26 09:51:38;;;;;;;;;;;41.50;25.90;;;35.34;28.09;95677.72;4956062;28;20297;-51
2023/06/26 09:54:05;;;;;;;;;;;41.50;25.90;;;35.39;27.31;95677.25;4971339;28;20334;-51
2023/06/26 09:56:33;;;;;;;;;;;41.50;25.80;;;35.77;27.30;95669.41;4967843;28;19909;-52
2023/06/26 09:59:02;;;;;;;;;;;41.60;25.90;;;35.92;26.96;95667.13;4961907;28;19920;-51
2023/06/26 10:01:30;;;;;;;;;;;41.80;25.90;;;35.64;26.92;95672.03;4972705;28;19918;-49
2023/06/26 10:03:57;;;;;;;;;;;41.80;25.70;;;35.10;27.61;95657.59;4969927;28;19909;-50
2023/06/26 10:06:40;;;;;;;;;;;41.80;25.50;;;34.98;27.03;95650.69;4969246;28;20423;-49
2023/06/26 10:09:08;;;;;;;;;;;41.80;25.30;;;35.00;26.72;95656.56;4959981;28;20012;-49
2023/06/26 10:12:05;;;;;;;;;;;41.80;25.30;;;35.31;27.70;95656.44;4972133;28;20425;-52
2023/06/26 10:14:36;;;;;;;;;;;41.70;25.10;;;35.20;26.86;95659.41;4972501;28;19920;-47
2023/06/26 10:17:08;;;;;;;;;;;41.70;25.10;;;35.54;26.44;95645.34;4964087;28;20361;-48
2023/06/26 10:19:37;;;;;;;;;;;41.80;25.00;;;35.77;27.00;95657.53;4970969;28;19910;-52
2023/06/26 10:22:04;;;;;;;;;;;41.80;25.00;;;35.89;25.52;95648.56;4959806;28;19936;-53
2023/06/26 10:24:35;;;;;;;;;;;42.00;25.10;;;36.22;26.03;95654.22;4970636;28;19913;-48
2023/06/26 10:27:18;;;;;;;;;;;42.20;25.10;;;36.55;24.83;95652.28;4968050;28;19949;-51
2023/06/26 10:29:56;;;;;;;;;;;42.50;25.10;;;36.74;25.02;95656.19;4960809;28;20324;-50
2023/06/26 10:32:26;;;;;;;;;;;42.70;24.80;;;36.81;25.41;95658.78;4972591;28;19913;-51
2023/06/26 10:34:53;;;;;;;;;;;42.90;24.60;;;36.41;24.63;95656.13;4955846;28;19953;-52
2023/06/26 10:37:19;;;;;;;;;;;43.00;24.20;;;36.67;24.78;95657.16;4970099;28;19977;-47
2023/06/26 10:39:50;;;;;;;;;;;43.10;24.30;;;37.16;24.70;95645.25;4962754;28;19917;-51
2023/06/26 10:42:33;;;;;;;;;;;43.20;24.30;;;37.48;24.41;95653.53;4971207;28;19945;-49
2023/06/26 10:45:17;;;;;;;;;;;43.50;24.30;;;37.12;24.49;95653.66;4969214;28;20495;-52
2023/06/26 10:47:48;;;;;;;;;;;43.70;24.20;;;36.86;24.81;95649.94;4949832;28;19925;-53
2023/06/26 10:50:24;;;;;;;;;;;43.70;23.90;;;36.85;24.92;95647.59;4966858;28;20380;-50
2023/06/26 10:53:22;;;;;;;;;;;43.90;23.80;;;36.97;24.39;95649.66;4950318;28;20389;-52
2023/06/26 10:56:05;;;;;;;;;;;43.90;23.50;;;37.27;23.70;95637.41;4952771;28;19910;-56
2023/06/26 10:58:42;;;;;;;;;;;43.90;23.50;;;37.43;23.63;95647.69;4951793;28;20016;-50
2023/06/26 11:01:24;;;;;;;;;;;44.00;23.60;;;37.38;24.73;95645.44;4964501;28;19910;-52
2023/06/26 11:04:03;;;;;;;;;;;44.10;23.50;;;37.57;23.83;95652.88;4945318;28;19946;-53
2023/06/26 11:06:31;;;;;;;;;;;44.30;23.50;;;37.68;23.54;95650.56;4952535;28;19922;-55
2023/06/26 11:09:11;;;;;;;;;;;44.50;23.50;;;37.57;23.84;95650.09;4953504;28;20008;-55
2023/06/26 11:11:52;;;;;;;;;;;44.60;23.40;;;37.60;23.79;95648.44;4960414;28;19910;-52
2023/06/26 11:14:23;;;;;;;;;;;44.80;23.30;;;37.71;24.37;95655.25;4971181;28;19910;-55
2023/06/26 11:16:49;;;;;;;;;;;44.90;23.20;;;37.27;24.01;95646.50;4943345;28;19918;-50
2023/06/26 11:19:18;;;;;;;;;;;45.00;22.90;;;37.41;23.53;95647.34;4971450;28;19910;-54